Time;durP1;ratioP1;P1;durP2;ratioP2;P2;SDS_P1;SDS_P2;PMS_P1;PMS_P2;Temp;Humidity;BMP_temperature;BMP_pressure;BME280_temperature;BME280_humidity;BME280_pressure;Samples;Min_cycle;Max_cycle;Signal;HPM_P1;HPM_P2
2021/03/13 00:00:02;;;;;;;13.65;10.32;;;;;;;;;;5106314;28;20200;-64
2021/03/13 00:02:29;;;;;;;16.20;11.93;;;;;;;;;;5105490;28;20614;-64
2021/03/13 00:04:55;;;;;;;14.02;11.00;;;;;;;;;;5102247;28;20235;-64
2021/03/13 00:07:22;;;;;;;17.70;11.32;;;;;;;;;;5100808;28;20212;-63
2021/03/13 00:09:49;;;;;;;14.60;10.63;;;;;;;;;;5103726;28;20200;-64
2021/03/13 00:12:16;;;;;;;15.82;10.80;;;;;;;;;;5106342;28;20577;-64
2021/03/13 00:14:43;;;;;;;14.90;11.57;;;;;;;;;;5107031;28;20221;-65
2021/03/13 00:17:10;;;;;;;12.15;9.73;;;;;;;;;;5105648;28;20205;-64
2021/03/13 00:19:37;;;;;;;12.57;9.60;;;;;;;;;;5105946;28;20192;-64
2021/03/13 00:22:04;;;;;;;10.25;9.07;;;;;;;;;;5106761;28;20227;-64
2021/03/13 00:24:30;;;;;;;14.93;9.57;;;;;;;;;;5109553;28;20216;-64
2021/03/13 00:26:57;;;;;;;16.02;9.27;;;;;;;;;;5108779;28;20203;-64
2021/03/13 00:29:24;;;;;;;11.80;9.10;;;;;;;;;;5108513;28;20220;-65
2021/03/13 00:31:54;;;;;;;11.55;9.00;;;;;;;;;;5109770;28;20196;-65
2021/03/13 00:34:21;;;;;;;13.05;10.27;;;;;;;;;;5108981;28;20221;-64
2021/03/13 00:36:48;;;;;;;15.40;8.23;;;;;;;;;;5110616;28;20208;-64
2021/03/13 00:39:15;;;;;;;15.52;8.98;;;;;;;;;;5109439;28;20200;-64
2021/03/13 00:41:42;;;;;;;12.75;9.20;;;;;;;;;;5110006;28;20200;-64
2021/03/13 00:44:08;;;;;;;12.93;9.07;;;;;;;;;;5108252;28;20228;-64
2021/03/13 00:46:36;;;;;;;9.75;8.68;;;;;;;;;;5105751;28;20211;-64
2021/03/13 00:49:04;;;;;;;14.15;8.35;;;;;;;;;;5106543;28;20240;-63
2021/03/13 00:51:31;;;;;;;18.35;9.20;;;;;;;;;;5106960;28;20211;-63
2021/03/13 00:53:58;;;;;;;15.65;9.05;;;;;;;;;;5107992;28;20220;-64
2021/03/13 00:56:24;;;;;;;13.20;7.60;;;;;;;;;;5106735;28;20200;-64
2021/03/13 00:58:51;;;;;;;13.45;8.50;;;;;;;;;;5103774;28;20222;-64
2021/03/13 01:01:18;;;;;;;11.30;9.73;;;;;;;;;;5103646;28;20200;-64
2021/03/13 01:03:45;;;;;;;23.48;8.98;;;;;;;;;;5104404;28;20220;-65
2021/03/13 01:06:12;;;;;;;10.05;8.18;;;;;;;;;;5103272;28;20208;-64
2021/03/13 01:08:39;;;;;;;14.43;8.05;;;;;;;;;;5103438;28;20220;-65
2021/03/13 01:11:06;;;;;;;8.23;6.78;;;;;;;;;;5104146;28;20204;-65
2021/03/13 01:13:32;;;;;;;10.50;7.43;;;;;;;;;;5103132;28;20243;-64
2021/03/13 01:15:59;;;;;;;10.07;7.50;;;;;;;;;;5103686;28;20679;-64
2021/03/13 01:18:26;;;;;;;7.38;6.68;;;;;;;;;;5104111;28;20205;-64
2021/03/13 01:20:53;;;;;;;11.88;7.00;;;;;;;;;;5106142;28;20197;-64
2021/03/13 01:23:20;;;;;;;10.40;6.95;;;;;;;;;;5105685;28;20252;-63
2021/03/13 01:25:47;;;;;;;11.13;7.40;;;;;;;;;;5105307;28;20253;-65
2021/03/13 01:28:14;;;;;;;8.13;6.88;;;;;;;;;;5099482;28;20578;-64
2021/03/13 01:30:41;;;;;;;15.35;7.15;;;;;;;;;;5101421;28;20207;-65
2021/03/13 01:33:09;;;;;;;11.25;6.90;;;;;;;;;;5098641;28;20202;-64
2021/03/13 01:35:35;;;;;;;14.77;7.25;;;;;;;;;;5098626;28;20200;-63
2021/03/13 01:38:02;;;;;;;7.65;6.80;;;;;;;;;;5100242;28;20566;-64
2021/03/13 01:40:30;;;;;;;8.05;6.45;;;;;;;;;;5098121;28;20672;-64
2021/03/13 01:42:57;;;;;;;11.55;6.35;;;;;;;;;;5101953;28;20601;-64
2021/03/13 01:45:24;;;;;;;10.27;6.90;;;;;;;;;;5102020;28;20532;-64
2021/03/13 01:47:52;;;;;;;9.02;7.22;;;;;;;;;;5101730;28;20228;-63
2021/03/13 01:50:19;;;;;;;7.45;6.35;;;;;;;;;;5100354;28;20200;-65
2021/03/13 01:52:48;;;;;;;8.57;5.78;;;;;;;;;;5099834;28;20204;-64
2021/03/13 01:55:15;;;;;;;8.55;6.05;;;;;;;;;;5099351;28;20228;-65
2021/03/13 01:57:42;;;;;;;9.98;6.10;;;;;;;;;;5098450;28;20196;-64
2021/03/13 02:00:11;;;;;;;7.30;6.55;;;;;;;;;;5098901;28;20196;-64
2021/03/13 02:02:38;;;;;;;7.05;5.55;;;;;;;;;;5098715;28;20202;-65
2021/03/13 02:05:07;;;;;;;10.52;5.75;;;;;;;;;;5098345;28;20220;-64
2021/03/13 02:07:37;;;;;;;6.10;5.35;;;;;;;;;;5096621;28;20219;-63
2021/03/13 02:10:08;;;;;;;8.43;6.18;;;;;;;;;;5097816;28;20204;-65
2021/03/13 02:12:45;;;;;;;9.90;6.60;;;;;;;;;;5098810;28;20184;-64
2021/03/13 02:15:18;;;;;;;5.72;4.88;;;;;;;;;;5102094;28;20216;-64
2021/03/13 02:17:49;;;;;;;6.88;5.70;;;;;;;;;;5100935;28;20185;-65
2021/03/13 02:20:33;;;;;;;9.45;5.85;;;;;;;;;;5097155;28;20188;-63
2021/03/13 02:23:00;;;;;;;7.22;5.95;;;;;;;;;;5097158;28;20188;-65
2021/03/13 02:25:34;;;;;;;7.45;5.70;;;;;;;;;;5096912;28;20204;-63
2021/03/13 02:28:04;;;;;;;6.47;5.25;;;;;;;;;;5097151;28;20200;-63
2021/03/13 02:30:33;;;;;;;6.43;5.72;;;;;;;;;;5097085;28;20207;-64
2021/03/13 02:33:02;;;;;;;8.98;6.00;;;;;;;;;;5096949;28;20200;-63
2021/03/13 02:35:32;;;;;;;5.47;4.32;;;;;;;;;;5097067;28;20211;-64
2021/03/13 02:38:02;;;;;;;5.70;5.10;;;;;;;;;;5096517;28;20201;-64
2021/03/13 02:40:29;;;;;;;5.30;4.80;;;;;;;;;;5095671;28;20691;-65
2021/03/13 02:42:58;;;;;;;6.10;4.82;;;;;;;;;;5096464;28;20204;-65
2021/03/13 02:45:26;;;;;;;4.93;4.43;;;;;;;;;;5100289;28;20616;-65
2021/03/13 02:47:54;;;;;;;7.57;5.45;;;;;;;;;;5116352;28;20214;-65
2021/03/13 02:50:21;;;;;;;8.88;5.75;;;;;;;;;;5117855;28;20226;-65
2021/03/13 02:52:49;;;;;;;5.45;4.72;;;;;;;;;;5113122;28;20204;-63
2021/03/13 02:55:16;;;;;;;10.98;4.82;;;;;;;;;;5101325;28;20228;-63
2021/03/13 02:57:44;;;;;;;6.55;3.90;;;;;;;;;;5095226;28;20200;-64
2021/03/13 03:00:14;;;;;;;7.55;4.43;;;;;;;;;;5095414;28;20683;-64
2021/03/13 03:02:41;;;;;;;5.13;4.35;;;;;;;;;;5095424;28;20203;-63
2021/03/13 03:05:09;;;;;;;5.57;5.00;;;;;;;;;;5095213;28;20228;-63
2021/03/13 03:07:36;;;;;;;7.93;4.30;;;;;;;;;;5096431;28;20235;-65
2021/03/13 03:10:06;;;;;;;6.32;4.22;;;;;;;;;;5096291;28;20196;-65
2021/03/13 03:12:33;;;;;;;5.93;4.80;;;;;;;;;;5099012;28;20207;-66
2021/03/13 03:15:01;;;;;;;7.50;4.35;;;;;;;;;;5096662;28;20220;-64
2021/03/13 03:17:28;;;;;;;8.25;3.58;;;;;;;;;;5095503;28;20569;-65
2021/03/13 03:19:55;;;;;;;5.75;4.40;;;;;;;;;;5095891;28;20245;-65
2021/03/13 03:22:23;;;;;;;7.45;4.07;;;;;;;;;;5095369;28;20203;-64
2021/03/13 03:24:50;;;;;;;7.75;4.22;;;;;;;;;;5095534;28;20227;-65
2021/03/13 03:27:17;;;;;;;7.22;4.82;;;;;;;;;;5096011;28;20249;-65
2021/03/13 03:29:43;;;;;;;5.38;3.70;;;;;;;;;;5095001;28;20695;-65
2021/03/13 03:32:10;;;;;;;7.40;4.05;;;;;;;;;;5095411;28;20672;-64
2021/03/13 03:34:37;;;;;;;4.80;4.03;;;;;;;;;;5096749;28;20326;-65
2021/03/13 03:37:06;;;;;;;6.05;3.97;;;;;;;;;;5095824;28;20203;-65
2021/03/13 03:39:34;;;;;;;6.45;4.10;;;;;;;;;;5096017;28;20196;-65
2021/03/13 03:42:02;;;;;;;6.10;3.63;;;;;;;;;;5096061;28;20604;-64
2021/03/13 03:44:34;;;;;;;4.13;3.72;;;;;;;;;;5095563;28;20565;-64
2021/03/13 03:47:04;;;;;;;3.75;2.85;;;;;;;;;;5095270;28;20180;-63
2021/03/13 03:49:31;;;;;;;5.88;3.65;;;;;;;;;;5096084;28;20224;-64
2021/03/13 03:51:59;;;;;;;5.95;4.10;;;;;;;;;;5095654;28;20195;-65
2021/03/13 03:54:26;;;;;;;4.65;2.60;;;;;;;;;;5095870;28;20216;-65
2021/03/13 03:56:54;;;;;;;5.20;3.35;;;;;;;;;;5096892;28;20201;-64
2021/03/13 03:59:21;;;;;;;10.43;3.75;;;;;;;;;;5095850;28;20193;-65
2021/03/13 04:01:50;;;;;;;5.63;3.50;;;;;;;;;;5096102;28;20214;-64
2021/03/13 04:07:52;;;;;;;4.80;3.20;;;;;;;;;;5135732;27;20535;-64
2021/03/13 04:10:19;;;;;;;7.82;4.25;;;;;;;;;;5136490;27;20207;-64
2021/03/13 04:12:47;;;;;;;4.28;2.65;;;;;;;;;;5137047;27;20200;-65
2021/03/13 04:15:15;;;;;;;6.00;3.20;;;;;;;;;;5135083;27;20215;-64
2021/03/13 04:17:42;;;;;;;9.63;2.97;;;;;;;;;;5134239;27;20203;-65
2021/03/13 04:20:10;;;;;;;3.67;2.92;;;;;;;;;;5133974;27;20203;-64
2021/03/13 04:22:37;;;;;;;17.05;10.57;;;;;;;;;;5132815;27;20675;-64
2021/03/13 04:25:07;;;;;;;4.80;2.90;;;;;;;;;;5137321;27;20219;-64
2021/03/13 04:27:33;;;;;;;6.60;2.80;;;;;;;;;;5141558;27;20242;-65
2021/03/13 04:30:01;;;;;;;5.03;2.80;;;;;;;;;;5132175;27;20244;-65
2021/03/13 04:32:28;;;;;;;8.05;3.08;;;;;;;;;;5135892;27;20195;-65
2021/03/13 04:34:55;;;;;;;3.78;2.53;;;;;;;;;;5133435;27;20222;-64
2021/03/13 04:37:23;;;;;;;5.00;2.47;;;;;;;;;;5135004;27;20199;-64
2021/03/13 04:39:51;;;;;;;4.43;2.10;;;;;;;;;;5133866;27;20195;-64
2021/03/13 04:42:18;;;;;;;3.80;2.20;;;;;;;;;;5132413;27;20294;-64
2021/03/13 04:44:45;;;;;;;2.10;1.77;;;;;;;;;;5131952;27;20222;-65
2021/03/13 04:47:12;;;;;;;4.45;2.30;;;;;;;;;;5139676;27;20219;-65
2021/03/13 04:49:39;;;;;;;3.50;2.00;;;;;;;;;;5133815;27;20198;-64
2021/03/13 04:52:06;;;;;;;3.53;2.00;;;;;;;;;;5132352;27;20206;-64
2021/03/13 04:54:33;;;;;;;3.30;2.42;;;;;;;;;;5132491;27;20219;-63
2021/03/13 04:57:00;;;;;;;6.60;2.17;;;;;;;;;;5132619;27;20235;-64
2021/03/13 04:59:28;;;;;;;3.90;1.90;;;;;;;;;;5132214;27;20252;-64
2021/03/13 05:01:54;;;;;;;2.42;1.65;;;;;;;;;;5131807;27;20256;-64
2021/03/13 05:04:21;;;;;;;2.63;1.85;;;;;;;;;;5134059;27;20223;-65
2021/03/13 05:06:48;;;;;;;2.33;1.90;;;;;;;;;;5133928;27;20246;-63
2021/03/13 05:09:15;;;;;;;2.35;1.60;;;;;;;;;;5132342;27;20681;-64
2021/03/13 05:11:41;;;;;;;2.78;1.98;;;;;;;;;;5130930;27;20203;-62
2021/03/13 05:14:08;;;;;;;3.03;2.08;;;;;;;;;;5130989;27;20242;-62
2021/03/13 05:16:36;;;;;;;4.05;2.22;;;;;;;;;;5130724;27;20720;-63
2021/03/13 05:19:02;;;;;;;2.90;2.25;;;;;;;;;;5118020;27;20252;-62
2021/03/13 05:21:29;;;;;;;3.33;2.60;;;;;;;;;;5116858;28;20210;-62
2021/03/13 05:23:56;;;;;;;2.30;1.95;;;;;;;;;;5116871;28;20230;-63
2021/03/13 05:26:23;;;;;;;3.47;1.80;;;;;;;;;;5116847;28;20276;-62
2021/03/13 05:28:50;;;;;;;4.05;2.28;;;;;;;;;;5118945;28;20603;-62
2021/03/13 05:31:17;;;;;;;2.92;2.10;;;;;;;;;;5119107;28;20195;-62
2021/03/13 05:33:45;;;;;;;2.40;2.20;;;;;;;;;;5117441;28;20220;-63
2021/03/13 05:36:12;;;;;;;2.50;2.25;;;;;;;;;;5116809;28;20253;-62
2021/03/13 05:38:39;;;;;;;5.15;2.22;;;;;;;;;;5116465;28;20199;-63
2021/03/13 05:41:06;;;;;;;5.95;2.13;;;;;;;;;;5116720;28;20204;-60
2021/03/13 05:43:34;;;;;;;2.25;2.00;;;;;;;;;;5116367;28;20226;-62
2021/03/13 05:46:02;;;;;;;5.55;2.67;;;;;;;;;;5116404;28;20211;-63
2021/03/13 05:48:31;;;;;;;4.20;2.50;;;;;;;;;;5116469;28;20202;-62
2021/03/13 05:51:00;;;;;;;3.00;2.50;;;;;;;;;;5116942;28;20622;-62
2021/03/13 05:53:27;;;;;;;2.70;2.40;;;;;;;;;;5116751;28;20706;-61
2021/03/13 05:55:54;;;;;;;2.50;2.30;;;;;;;;;;5116262;28;20203;-62
2021/03/13 05:58:21;;;;;;;4.13;2.65;;;;;;;;;;5116463;28;20196;-61
2021/03/13 06:00:48;;;;;;;2.75;2.55;;;;;;;;;;5116265;28;20196;-62
2021/03/13 06:03:15;;;;;;;3.30;3.00;;;;;;;;;;5116055;28;20252;-63
2021/03/13 06:05:42;;;;;;;3.95;2.50;;;;;;;;;;5115607;28;20255;-62
2021/03/13 06:08:10;;;;;;;2.72;2.38;;;;;;;;;;5116261;28;20191;-62
2021/03/13 06:10:37;;;;;;;3.35;2.55;;;;;;;;;;5116143;28;20211;-62
2021/03/13 06:13:04;;;;;;;3.58;2.90;;;;;;;;;;5115973;28;20200;-61
2021/03/13 06:15:31;;;;;;;2.60;2.40;;;;;;;;;;5115980;28;20206;-62
2021/03/13 06:17:58;;;;;;;3.22;2.63;;;;;;;;;;5115901;28;20211;-62
2021/03/13 06:20:29;;;;;;;3.60;3.03;;;;;;;;;;5115773;28;20567;-61
2021/03/13 06:22:56;;;;;;;2.83;2.60;;;;;;;;;;5115842;28;20207;-61
2021/03/13 06:25:25;;;;;;;3.78;3.00;;;;;;;;;;5115580;28;20589;-63
2021/03/13 06:28:05;;;;;;;3.00;2.78;;;;;;;;;;5115948;28;20243;-62
2021/03/13 06:30:33;;;;;;;2.78;2.58;;;;;;;;;;5114558;28;20224;-61
2021/03/13 06:33:00;;;;;;;4.07;2.55;;;;;;;;;;5116280;28;20333;-61
2021/03/13 06:35:28;;;;;;;2.72;2.53;;;;;;;;;;5116279;28;20267;-63
2021/03/13 06:37:55;;;;;;;2.70;2.50;;;;;;;;;;5115588;28;20200;-61
2021/03/13 06:40:27;;;;;;;2.55;2.35;;;;;;;;;;5116181;28;20196;-61
2021/03/13 06:42:54;;;;;;;3.00;2.75;;;;;;;;;;5116118;28;20200;-61
2021/03/13 06:45:22;;;;;;;2.63;2.42;;;;;;;;;;5115501;28;20227;-62
2021/03/13 06:47:49;;;;;;;4.22;2.70;;;;;;;;;;5115565;28;20216;-62
2021/03/13 06:50:16;;;;;;;5.53;2.80;;;;;;;;;;5116184;28;20231;-62
2021/03/13 06:52:44;;;;;;;2.00;1.90;;;;;;;;;;5116505;28;20209;-62
2021/03/13 06:55:17;;;;;;;1.95;1.50;;;;;;;;;;5114880;28;20231;-61
2021/03/13 06:57:47;;;;;;;1.85;1.65;;;;;;;;;;5115427;28;20191;-62
2021/03/13 07:00:25;;;;;;;1.83;1.73;;;;;;;;;;5114994;28;20279;-63
2021/03/13 07:02:52;;;;;;;4.00;2.20;;;;;;;;;;5114823;28;20661;-62
2021/03/13 07:05:28;;;;;;;2.70;1.88;;;;;;;;;;5115095;28;20215;-62
2021/03/13 07:07:55;;;;;;;1.88;1.67;;;;;;;;;;5115770;28;20203;-61
2021/03/13 07:10:27;;;;;;;1.90;1.80;;;;;;;;;;5114947;28;20222;-61
2021/03/13 07:12:55;;;;;;;1.83;1.73;;;;;;;;;;5114946;28;20264;-63
2021/03/13 07:15:23;;;;;;;1.60;1.50;;;;;;;;;;5114663;28;20653;-62
2021/03/13 07:17:51;;;;;;;1.75;1.50;;;;;;;;;;5114982;28;20294;-61
2021/03/13 07:20:19;;;;;;;1.80;1.25;;;;;;;;;;5115602;28;20298;-62
2021/03/13 07:22:49;;;;;;;1.73;1.55;;;;;;;;;;5117913;28;20211;-61
2021/03/13 07:25:18;;;;;;;1.30;1.17;;;;;;;;;;5115993;28;20234;-62
2021/03/13 07:27:46;;;;;;;1.20;1.10;;;;;;;;;;5118771;28;20220;-62
2021/03/13 07:30:15;;;;;;;1.38;1.27;;;;;;;;;;5117955;28;20199;-62
2021/03/13 07:32:43;;;;;;;1.13;1.02;;;;;;;;;;5119936;28;20234;-62
2021/03/13 07:35:12;;;;;;;4.60;1.38;;;;;;;;;;5117275;28;20251;-61
2021/03/13 07:37:41;;;;;;;1.33;1.23;;;;;;;;;;5115054;28;20200;-62
2021/03/13 07:40:12;;;;;;;1.75;1.20;;;;;;;;;;5115412;28;20207;-61
2021/03/13 07:42:40;;;;;;;1.48;1.10;;;;;;;;;;5114984;28;20209;-62
2021/03/13 07:45:07;;;;;;;1.35;1.10;;;;;;;;;;5114064;28;20285;-62
2021/03/13 07:47:35;;;;;;;0.82;0.80;;;;;;;;;;5113954;28;20216;-63
2021/03/13 07:50:02;;;;;;;1.55;0.95;;;;;;;;;;5114128;28;20231;-61
2021/03/13 07:52:29;;;;;;;1.75;1.13;;;;;;;;;;5113708;28;20267;-61
2021/03/13 07:54:57;;;;;;;1.88;1.70;;;;;;;;;;5114214;28;20227;-62
2021/03/13 07:57:24;;;;;;;1.85;1.20;;;;;;;;;;5113994;28;20226;-63
2021/03/13 07:59:51;;;;;;;1.50;1.00;;;;;;;;;;5113764;28;20294;-64
2021/03/13 08:02:38;;;;;;;1.08;0.95;;;;;;;;;;5114931;28;20303;-64
2021/03/13 08:05:07;;;;;;;1.00;0.90;;;;;;;;;;5113733;28;20242;-64
2021/03/13 08:07:48;;;;;;;1.05;0.90;;;;;;;;;;5113791;28;20220;-65
2021/03/13 08:10:40;;;;;;;1.52;1.13;;;;;;;;;;5111780;28;20231;-63
2021/03/13 08:13:07;;;;;;;1.10;0.95;;;;;;;;;;5114917;28;20251;-69
2021/03/13 08:15:44;;;;;;;1.83;0.93;;;;;;;;;;5114483;28;20199;-63
2021/03/13 08:18:13;;;;;;;1.10;0.90;;;;;;;;;;5113807;28;20294;-63
2021/03/13 08:20:40;;;;;;;1.35;0.90;;;;;;;;;;5113664;28;20558;-65
2021/03/13 08:23:19;;;;;;;0.75;0.73;;;;;;;;;;5113420;28;20238;-64
2021/03/13 08:25:53;;;;;;;1.40;0.90;;;;;;;;;;5113844;28;20282;-64
2021/03/13 08:28:39;;;;;;;1.00;0.90;;;;;;;;;;5114472;28;20238;-66
2021/03/13 08:31:20;;;;;;;0.88;0.80;;;;;;;;;;5113478;28;20199;-63
2021/03/13 08:33:48;;;;;;;0.57;0.52;;;;;;;;;;5113299;28;20281;-61
2021/03/13 08:36:16;;;;;;;1.80;0.95;;;;;;;;;;5113761;28;20202;-61
2021/03/13 08:38:53;;;;;;;0.80;0.60;;;;;;;;;;5113665;28;20287;-61
2021/03/13 08:41:38;;;;;;;1.30;0.82;;;;;;;;;;5113450;28;20199;-61
2021/03/13 08:44:05;;;;;;;1.05;0.75;;;;;;;;;;5113787;28;20215;-60
2021/03/13 08:46:44;;;;;;;0.65;0.65;;;;;;;;;;5113820;28;20311;-62
2021/03/13 08:49:11;;;;;;;0.80;0.65;;;;;;;;;;5113389;28;20223;-65
2021/03/13 08:51:38;;;;;;;1.00;0.75;;;;;;;;;;5113126;28;20276;-64
2021/03/13 08:54:06;;;;;;;0.80;0.80;;;;;;;;;;5116564;28;20652;-64
2021/03/13 08:56:36;;;;;;;0.70;0.60;;;;;;;;;;5117458;28;20900;-62
2021/03/13 08:59:09;;;;;;;1.35;0.88;;;;;;;;;;5117055;28;20199;-62
2021/03/13 09:01:36;;;;;;;0.90;0.70;;;;;;;;;;5117205;28;20283;-64
2021/03/13 09:04:03;;;;;;;0.80;0.70;;;;;;;;;;5127585;28;20248;-65
2021/03/13 09:06:31;;;;;;;1.60;0.80;;;;;;;;;;5133618;28;20231;-66
2021/03/13 09:09:08;;;;;;;1.10;0.50;;;;;;;;;;5127356;28;20224;-64
2021/03/13 09:11:36;;;;;;;1.17;0.60;;;;;;;;;;5118030;28;20230;-65
2021/03/13 09:14:03;;;;;;;1.55;1.10;;;;;;;;;;5116847;28;20273;-65
2021/03/13 09:16:34;;;;;;;0.90;0.60;;;;;;;;;;5117293;28;20200;-64
2021/03/13 09:19:01;;;;;;;1.33;0.60;;;;;;;;;;5117144;28;20689;-62
2021/03/13 09:21:52;;;;;;;1.80;1.40;;;;;;;;;;5117158;28;20199;-64
2021/03/13 09:24:21;;;;;;;0.85;0.57;;;;;;;;;;5101377;28;20633;-63
2021/03/13 09:26:49;;;;;;;1.08;0.73;;;;;;;;;;5116571;28;20254;-62
2021/03/13 09:29:16;;;;;;;0.73;0.60;;;;;;;;;;5118460;28;20199;-63
2021/03/13 09:31:43;;;;;;;0.90;0.50;;;;;;;;;;5117828;28;20287;-64
2021/03/13 09:34:13;;;;;;;1.23;0.77;;;;;;;;;;5119304;27;20223;-62
2021/03/13 09:36:40;;;;;;;0.82;0.80;;;;;;;;;;5120446;28;20195;-62
2021/03/13 09:39:07;;;;;;;1.48;0.70;;;;;;;;;;5120140;28;20206;-62
2021/03/13 09:41:35;;;;;;;3.22;0.70;;;;;;;;;;5117835;28;20232;-60
2021/03/13 09:44:02;;;;;;;1.42;0.98;;;;;;;;;;5117486;28;20219;-62
2021/03/13 09:46:30;;;;;;;2.88;1.00;;;;;;;;;;5117174;28;20226;-61
2021/03/13 09:48:57;;;;;;;1.10;1.00;;;;;;;;;;5118421;28;20206;-61
2021/03/13 09:51:25;;;;;;;2.67;1.13;;;;;;;;;;5117008;28;20286;-62
2021/03/13 09:53:52;;;;;;;1.13;0.70;;;;;;;;;;5116254;28;20284;-61
2021/03/13 09:56:29;;;;;;;1.50;0.80;;;;;;;;;;5117241;28;20238;-62
2021/03/13 09:59:00;;;;;;;1.25;0.70;;;;;;;;;;5117447;27;20194;-60
2021/03/13 10:01:27;;;;;;;0.90;0.80;;;;;;;;;;5117304;28;20253;-63
2021/03/13 10:03:54;;;;;;;1.50;1.15;;;;;;;;;;5121690;27;20225;-66
2021/03/13 10:06:21;;;;;;;0.60;0.60;;;;;;;;;;5118375;28;20276;-65
2021/03/13 10:09:00;;;;;;;1.38;1.27;;;;;;;;;;5117181;28;20663;-63
2021/03/13 10:11:38;;;;;;;1.35;1.05;;;;;;;;;;5117205;28;20199;-61
2021/03/13 10:14:06;;;;;;;4.13;1.42;;;;;;;;;;5117310;28;20219;-63
2021/03/13 10:16:33;;;;;;;2.70;1.20;;;;;;;;;;5117242;28;20196;-64
2021/03/13 10:19:00;;;;;;;2.47;1.10;;;;;;;;;;5117149;28;20225;-63
2021/03/13 10:21:27;;;;;;;2.25;1.38;;;;;;;;;;5116141;28;20253;-63
2021/03/13 10:23:58;;;;;;;2.08;1.17;;;;;;;;;;5118585;28;20220;-62
2021/03/13 10:26:27;;;;;;;2.75;1.60;;;;;;;;;;5130186;28;20204;-62
2021/03/13 10:28:54;;;;;;;3.53;1.45;;;;;;;;;;5121338;28;20199;-63
2021/03/13 10:31:27;;;;;;;3.50;1.58;;;;;;;;;;5116909;28;20200;-63
2021/03/13 10:33:54;;;;;;;2.90;1.35;;;;;;;;;;5117403;28;20238;-64
2021/03/13 10:36:21;;;;;;;4.38;1.40;;;;;;;;;;5115253;28;20199;-62
2021/03/13 10:38:49;;;;;;;2.20;1.13;;;;;;;;;;5116794;28;20199;-65
2021/03/13 10:41:16;;;;;;;2.08;0.98;;;;;;;;;;5115292;28;20211;-62
2021/03/13 10:43:44;;;;;;;1.13;0.98;;;;;;;;;;5115476;28;20227;-64
2021/03/13 10:46:16;;;;;;;3.25;1.17;;;;;;;;;;5115328;28;20249;-63
2021/03/13 10:49:00;;;;;;;1.38;1.27;;;;;;;;;;5115137;28;20225;-62
2021/03/13 10:51:28;;;;;;;1.80;1.08;;;;;;;;;;5115319;28;20207;-63
2021/03/13 10:53:55;;;;;;;1.75;1.25;;;;;;;;;;5115216;28;20216;-62
2021/03/13 10:56:22;;;;;;;2.70;1.27;;;;;;;;;;5115097;28;20199;-64
2021/03/13 10:58:49;;;;;;;3.20;1.48;;;;;;;;;;5114943;28;20211;-63
2021/03/13 11:01:17;;;;;;;1.33;1.20;;;;;;;;;;5114468;28;20206;-62
2021/03/13 11:03:44;;;;;;;1.38;1.15;;;;;;;;;;5115069;28;20223;-63
2021/03/13 11:06:12;;;;;;;1.92;1.30;;;;;;;;;;5114305;28;20736;-63
2021/03/13 11:08:39;;;;;;;1.98;1.35;;;;;;;;;;5114446;28;20249;-60
2021/03/13 11:11:06;;;;;;;2.55;1.65;;;;;;;;;;5114451;28;20210;-63
2021/03/13 11:13:33;;;;;;;3.20;1.67;;;;;;;;;;5115402;28;20796;-63
2021/03/13 11:16:00;;;;;;;4.20;1.35;;;;;;;;;;5114724;28;20195;-64
2021/03/13 11:18:26;;;;;;;3.70;1.80;;;;;;;;;;5114954;28;20667;-63
2021/03/13 11:20:54;;;;;;;2.70;1.60;;;;;;;;;;5115511;28;20248;-65
2021/03/13 11:23:21;;;;;;;6.47;2.03;;;;;;;;;;5116115;28;20291;-61
2021/03/13 11:25:48;;;;;;;4.35;2.20;;;;;;;;;;5115381;27;20268;-64
2021/03/13 11:28:17;;;;;;;3.30;2.35;;;;;;;;;;5114975;28;20230;-62
2021/03/13 11:30:43;;;;;;;4.75;2.20;;;;;;;;;;5115098;28;20207;-63
2021/03/13 11:33:10;;;;;;;4.63;2.00;;;;;;;;;;5114684;28;20199;-63
2021/03/13 11:35:37;;;;;;;4.30;2.25;;;;;;;;;;5114095;28;20199;-64
2021/03/13 11:38:04;;;;;;;3.85;1.90;;;;;;;;;;5114311;28;20195;-63
2021/03/13 11:40:32;;;;;;;2.95;1.45;;;;;;;;;;5114512;28;20211;-63
2021/03/13 11:43:00;;;;;;;5.38;1.67;;;;;;;;;;5114715;28;20210;-64
2021/03/13 11:45:27;;;;;;;4.68;1.80;;;;;;;;;;5114850;28;20223;-62
2021/03/13 11:47:55;;;;;;;3.60;2.50;;;;;;;;;;5116146;28;20603;-64
2021/03/13 11:50:23;;;;;;;2.30;1.40;;;;;;;;;;5115423;28;20207;-63
2021/03/13 11:52:49;;;;;;;2.95;1.77;;;;;;;;;;5115399;28;20232;-64
2021/03/13 11:55:16;;;;;;;2.85;1.55;;;;;;;;;;5115045;28;20220;-63
2021/03/13 11:57:44;;;;;;;3.17;1.65;;;;;;;;;;5114922;28;20698;-64
2021/03/13 12:00:11;;;;;;;3.22;1.80;;;;;;;;;;5115056;28;20286;-62
2021/03/13 12:02:39;;;;;;;3.03;1.60;;;;;;;;;;5114569;28;20211;-64
2021/03/13 12:05:06;;;;;;;5.68;1.88;;;;;;;;;;5124226;28;20365;-67
2021/03/13 12:07:33;;;;;;;3.95;1.63;;;;;;;;;;5120977;28;20256;-65
2021/03/13 12:10:00;;;;;;;2.05;1.83;;;;;;;;;;5118758;28;20206;-67
2021/03/13 12:12:27;;;;;;;5.45;2.15;;;;;;;;;;5116127;28;20331;-66
2021/03/13 12:14:55;;;;;;;3.53;1.70;;;;;;;;;;5115853;28;20226;-66
2021/03/13 12:17:22;;;;;;;3.90;1.48;;;;;;;;;;5116240;28;20288;-64
2021/03/13 12:19:48;;;;;;;3.20;1.45;;;;;;;;;;5116249;28;20210;-62
2021/03/13 12:22:16;;;;;;;3.35;1.73;;;;;;;;;;5116715;28;20199;-64
2021/03/13 12:24:43;;;;;;;5.38;1.63;;;;;;;;;;5117751;28;20707;-64
2021/03/13 12:27:10;;;;;;;1.45;1.10;;;;;;;;;;5116982;28;20238;-64
2021/03/13 12:29:37;;;;;;;3.85;1.35;;;;;;;;;;5120970;28;20197;-64
2021/03/13 12:32:06;;;;;;;2.90;1.30;;;;;;;;;;5121683;28;20211;-61
2021/03/13 12:34:32;;;;;;;1.90;1.02;;;;;;;;;;5119969;28;20220;-64
2021/03/13 12:36:59;;;;;;;3.60;1.40;;;;;;;;;;5122136;28;20195;-62
2021/03/13 12:39:26;;;;;;;3.88;1.23;;;;;;;;;;5119575;28;20255;-63
2021/03/13 12:41:53;;;;;;;4.25;1.25;;;;;;;;;;5120910;28;20199;-64
2021/03/13 12:44:20;;;;;;;2.78;1.20;;;;;;;;;;5117880;28;20227;-63
2021/03/13 12:46:46;;;;;;;3.60;1.90;;;;;;;;;;5118533;28;20223;-62
2021/03/13 12:49:14;;;;;;;1.83;1.17;;;;;;;;;;5117971;28;20208;-64
2021/03/13 12:51:41;;;;;;;3.58;1.17;;;;;;;;;;5117433;28;20659;-63
2021/03/13 12:54:08;;;;;;;2.90;1.15;;;;;;;;;;5117757;28;20220;-62
2021/03/13 12:56:34;;;;;;;2.97;1.15;;;;;;;;;;5117874;28;20199;-63
2021/03/13 12:59:01;;;;;;;4.57;1.55;;;;;;;;;;5117340;28;20196;-61
2021/03/13 13:01:28;;;;;;;3.70;1.10;;;;;;;;;;5117626;28;20199;-65
2021/03/13 13:03:56;;;;;;;1.50;1.05;;;;;;;;;;5117663;28;20223;-62
2021/03/13 13:06:24;;;;;;;3.97;1.40;;;;;;;;;;5117280;28;20218;-62
2021/03/13 13:08:51;;;;;;;2.55;1.20;;;;;;;;;;5117808;28;20298;-62
2021/03/13 13:11:18;;;;;;;2.47;1.15;;;;;;;;;;5117387;28;20211;-63
2021/03/13 13:13:45;;;;;;;4.47;1.08;;;;;;;;;;5116799;28;20273;-63
2021/03/13 13:16:11;;;;;;;1.55;1.10;;;;;;;;;;5118047;28;20686;-64
2021/03/13 13:18:38;;;;;;;3.25;1.33;;;;;;;;;;5118037;28;20196;-63
2021/03/13 13:21:05;;;;;;;3.53;1.88;;;;;;;;;;5118307;28;20211;-62
2021/03/13 13:23:35;;;;;;;5.05;1.77;;;;;;;;;;5126568;27;20220;-63
2021/03/13 13:26:02;;;;;;;5.15;1.55;;;;;;;;;;5123148;28;20188;-63
2021/03/13 13:28:29;;;;;;;2.20;1.38;;;;;;;;;;5119615;28;20224;-63
2021/03/13 13:30:56;;;;;;;2.75;1.30;;;;;;;;;;5118666;28;20196;-62
2021/03/13 13:33:23;;;;;;;3.22;1.80;;;;;;;;;;5117557;28;20273;-63
2021/03/13 13:35:50;;;;;;;3.25;1.83;;;;;;;;;;5119708;28;20207;-65
2021/03/13 13:38:17;;;;;;;2.42;1.55;;;;;;;;;;5117414;28;20195;-63
2021/03/13 13:40:46;;;;;;;3.95;1.67;;;;;;;;;;5118342;28;20200;-64
2021/03/13 13:43:13;;;;;;;3.55;1.92;;;;;;;;;;5117698;28;20225;-63
2021/03/13 13:45:40;;;;;;;3.45;1.75;;;;;;;;;;5119094;28;20211;-63
2021/03/13 13:48:07;;;;;;;4.10;1.35;;;;;;;;;;5118539;28;20219;-64
2021/03/13 13:50:34;;;;;;;3.40;1.20;;;;;;;;;;5118991;28;20204;-63
2021/03/13 13:53:01;;;;;;;2.95;1.27;;;;;;;;;;5118198;28;20331;-64
2021/03/13 13:55:31;;;;;;;3.10;1.23;;;;;;;;;;5118702;27;20226;-63
2021/03/13 13:57:59;;;;;;;2.13;1.30;;;;;;;;;;5117914;28;20191;-63
2021/03/13 14:00:26;;;;;;;3.53;1.33;;;;;;;;;;5117250;28;20199;-63
2021/03/13 14:02:54;;;;;;;4.22;1.88;;;;;;;;;;5117186;28;20578;-62
2021/03/13 14:05:22;;;;;;;5.88;2.17;;;;;;;;;;5116459;28;20223;-62
2021/03/13 14:07:49;;;;;;;3.30;1.77;;;;;;;;;;5116601;28;20223;-62
2021/03/13 14:10:17;;;;;;;6.35;2.03;;;;;;;;;;5116237;28;20736;-64
2021/03/13 14:12:44;;;;;;;3.50;1.50;;;;;;;;;;5116933;28;20204;-63
2021/03/13 14:15:12;;;;;;;6.40;1.90;;;;;;;;;;5116328;28;20633;-61
2021/03/13 14:17:39;;;;;;;5.05;1.92;;;;;;;;;;5116940;28;20207;-62
2021/03/13 14:20:07;;;;;;;7.80;2.17;;;;;;;;;;5116580;28;20208;-63
2021/03/13 14:22:34;;;;;;;4.20;1.60;;;;;;;;;;5116412;28;20199;-62
2021/03/13 14:25:01;;;;;;;5.32;1.65;;;;;;;;;;5116279;28;20219;-63
2021/03/13 14:27:27;;;;;;;6.53;2.28;;;;;;;;;;5116178;28;20721;-64
2021/03/13 14:29:54;;;;;;;4.45;2.40;;;;;;;;;;5116343;28;20199;-62
2021/03/13 14:32:22;;;;;;;5.57;1.60;;;;;;;;;;5116084;28;20587;-62
2021/03/13 14:34:49;;;;;;;3.50;1.65;;;;;;;;;;5115735;28;20226;-63
2021/03/13 14:37:16;;;;;;;5.78;1.67;;;;;;;;;;5115471;28;20196;-63
2021/03/13 14:39:43;;;;;;;4.00;1.35;;;;;;;;;;5115883;28;20207;-64
2021/03/13 14:42:13;;;;;;;4.63;1.52;;;;;;;;;;5116092;28;20260;-63
2021/03/13 14:44:40;;;;;;;1.55;0.90;;;;;;;;;;5116770;28;20715;-63
2021/03/13 14:47:08;;;;;;;3.03;1.40;;;;;;;;;;5118990;27;20215;-63
2021/03/13 14:49:36;;;;;;;2.13;1.65;;;;;;;;;;5117188;28;20301;-63